createdAt,value
2022-09-25T00:01:15.558Z,14.70
2022-09-25T00:03:43.041Z,14.67
2022-09-25T00:06:15.033Z,14.71
2022-09-25T00:08:44.754Z,14.72
2022-09-25T00:11:14.975Z,14.78
2022-09-25T00:13:43.116Z,14.82
2022-09-25T00:16:14.318Z,14.84
2022-09-25T00:18:41.997Z,14.88
2022-09-25T00:21:12.142Z,14.89
2022-09-25T00:23:39.673Z,14.91
2022-09-25T00:26:08.985Z,14.89
2022-09-25T00:28:37.180Z,14.88
2022-09-25T00:31:05.676Z,14.90
2022-09-25T00:33:35.476Z,14.87
2022-09-25T00:36:03.590Z,14.77
2022-09-25T00:38:30.808Z,14.68
2022-09-25T00:40:57.772Z,14.71
2022-09-25T00:43:39.343Z,14.74
2022-09-25T00:46:12.849Z,14.78
2022-09-25T00:48:49.498Z,14.82
2022-09-25T00:51:25.218Z,14.81
2022-09-25T00:53:52.391Z,14.83
2022-09-25T00:56:19.648Z,14.82
2022-09-25T00:58:48.430Z,14.82
2022-09-25T01:01:15.514Z,14.80
2022-09-25T01:03:43.274Z,14.78
2022-09-25T01:06:12.454Z,14.78
2022-09-25T01:08:41.085Z,14.77
2022-09-25T01:11:08.751Z,14.77
2022-09-25T01:13:36.548Z,14.78
2022-09-25T01:16:18.346Z,14.77
2022-09-25T01:19:08.827Z,14.79
2022-09-25T01:21:44.559Z,14.81
2022-09-25T01:24:45.006Z,14.81
2022-09-25T01:27:36.994Z,14.77
2022-09-25T01:30:11.277Z,14.78
2022-09-25T01:33:01.548Z,14.78
2022-09-25T01:35:45.572Z,14.79
2022-09-25T01:38:25.828Z,14.66
2022-09-25T01:41:04.684Z,14.57
2022-09-25T01:43:40.182Z,14.57
2022-09-25T01:46:15.801Z,14.57
2022-09-25T01:48:49.088Z,14.59
2022-09-25T01:51:21.918Z,14.62
2022-09-25T01:53:54.976Z,14.65
2022-09-25T01:56:28.238Z,14.64
2022-09-25T01:59:03.818Z,14.67
2022-09-25T02:01:40.246Z,14.68
2022-09-25T02:04:13.867Z,14.69
2022-09-25T02:06:47.863Z,14.69
2022-09-25T02:09:24.614Z,14.45
2022-09-25T02:11:59.403Z,14.27
2022-09-25T02:14:35.026Z,14.31
2022-09-25T02:17:09.903Z,14.39
2022-09-25T02:19:36.884Z,14.47
2022-09-25T02:22:10.725Z,14.31
2022-09-25T02:24:47.676Z,14.12
2022-09-25T02:27:15.314Z,14.17
2022-09-25T02:29:42.341Z,14.28
2022-09-25T02:32:15.726Z,14.34
2022-09-25T02:34:43.131Z,14.41
2022-09-25T02:37:12.035Z,14.45
2022-09-25T02:39:41.472Z,14.49
2022-09-25T02:42:24.104Z,14.52
2022-09-25T02:45:10.864Z,14.55
2022-09-25T02:47:57.885Z,14.57
2022-09-25T02:50:35.212Z,14.54
2022-09-25T02:53:09.307Z,14.56
2022-09-25T02:55:43.821Z,14.59
2022-09-25T02:58:20.066Z,14.56
2022-09-25T03:00:55.319Z,14.56
2022-09-25T03:03:27.754Z,14.34
2022-09-25T03:05:57.372Z,14.24
2022-09-25T03:08:27.826Z,13.94
2022-09-25T03:10:54.768Z,13.78
2022-09-25T03:13:25.483Z,13.54
2022-09-25T03:15:58.042Z,13.50
2022-09-25T03:18:27.642Z,13.63
2022-09-25T03:20:54.696Z,13.76
2022-09-25T03:23:21.442Z,13.81
2022-09-25T03:25:50.420Z,13.74
2022-09-25T03:28:18.031Z,13.78
2022-09-25T03:30:54.715Z,13.89
2022-09-25T03:33:21.552Z,14.01
2022-09-25T03:36:00.379Z,14.09
2022-09-25T03:38:27.738Z,14.17
2022-09-25T03:40:54.596Z,14.22
2022-09-25T03:43:21.352Z,14.26
2022-09-25T03:45:48.383Z,14.34
2022-09-25T03:48:15.184Z,14.39
2022-09-25T03:50:42.292Z,14.40
2022-09-25T03:53:10.609Z,14.29
2022-09-25T03:55:37.466Z,14.32
2022-09-25T03:58:04.847Z,14.31
2022-09-25T04:00:31.566Z,14.28
2022-09-25T04:02:58.452Z,14.33
2022-09-25T04:05:25.513Z,14.37
2022-09-25T04:07:52.519Z,14.21
2022-09-25T04:10:20.617Z,14.16
2022-09-25T04:12:47.813Z,14.22
2022-09-25T04:15:14.804Z,14.27
2022-09-25T04:17:41.528Z,14.23
2022-09-25T04:20:09.614Z,14.27
2022-09-25T04:22:36.327Z,14.30
2022-09-25T04:25:04.082Z,14.35
2022-09-25T04:27:32.152Z,14.32
2022-09-25T04:29:59.502Z,14.22
2022-09-25T04:32:26.408Z,14.24
2022-09-25T04:34:53.230Z,14.31
2022-09-25T04:37:19.945Z,14.34
2022-09-25T04:39:47.372Z,14.28
2022-09-25T04:42:15.116Z,14.21
2022-09-25T04:44:43.142Z,14.21
2022-09-25T04:47:09.923Z,13.97
2022-09-25T04:49:36.623Z,13.91
2022-09-25T04:52:03.538Z,13.51
2022-09-25T04:54:31.207Z,13.38
2022-09-25T04:56:58.019Z,13.33
2022-09-25T04:59:24.798Z,13.23
2022-09-25T05:01:52.962Z,13.17
2022-09-25T05:04:19.786Z,13.18
2022-09-25T05:06:46.603Z,13.10
2022-09-25T05:09:13.619Z,13.05
2022-09-25T05:11:40.511Z,13.09
2022-09-25T05:14:07.563Z,13.13
2022-09-25T05:16:34.854Z,13.24
2022-09-25T05:19:02.963Z,13.26
2022-09-25T05:21:32.023Z,13.34
2022-09-25T05:23:59.172Z,13.39
2022-09-25T05:26:26.349Z,13.57
2022-09-25T05:28:53.168Z,13.61
2022-09-25T05:31:20.141Z,13.60
2022-09-25T05:33:47.019Z,13.49
2022-09-25T05:36:15.517Z,13.56
2022-09-25T05:38:44.290Z,13.50
2022-09-25T05:41:11.867Z,13.46
2022-09-25T05:43:41.386Z,13.39
2022-09-25T05:46:08.976Z,13.34
2022-09-25T05:48:35.950Z,13.44
2022-09-25T05:51:03.596Z,13.60
2022-09-25T05:53:32.036Z,13.63
2022-09-25T05:56:01.652Z,13.53
2022-09-25T05:58:31.649Z,13.51
2022-09-25T06:01:00.909Z,13.60
2022-09-25T06:03:27.769Z,13.65
2022-09-25T06:05:55.828Z,13.74
2022-09-25T06:08:22.684Z,13.87
2022-09-25T06:10:54.206Z,13.90
2022-09-25T06:13:22.258Z,13.90
2022-09-25T06:15:49.852Z,14.04
2022-09-25T06:18:16.910Z,14.14
2022-09-25T06:20:43.651Z,14.23
2022-09-25T06:23:10.916Z,14.17
2022-09-25T06:25:37.745Z,14.24
2022-09-25T06:28:06.999Z,14.28
2022-09-25T06:30:37.537Z,14.25
2022-09-25T06:33:06.484Z,14.25
2022-09-25T06:35:33.430Z,14.22
2022-09-25T06:38:02.672Z,14.35
2022-09-25T06:40:31.463Z,14.44
2022-09-25T06:43:02.358Z,14.24
2022-09-25T06:45:33.801Z,14.25
2022-09-25T06:48:02.272Z,13.97
2022-09-25T06:50:37.743Z,13.94
2022-09-25T06:53:04.997Z,13.91
2022-09-25T06:55:32.042Z,14.02
2022-09-25T06:57:59.372Z,13.92
2022-09-25T07:00:27.982Z,13.77
2022-09-25T07:02:57.954Z,13.85
2022-09-25T07:05:24.842Z,13.97
2022-09-25T07:07:51.913Z,13.90
2022-09-25T07:10:18.971Z,14.08
2022-09-25T07:12:45.793Z,14.24
2022-09-25T07:15:12.687Z,14.40
2022-09-25T07:17:42.592Z,14.51
2022-09-25T07:20:13.165Z,14.62
2022-09-25T07:22:39.968Z,14.64
2022-09-25T07:25:10.031Z,14.79
2022-09-25T07:27:37.383Z,14.87
2022-09-25T07:30:05.325Z,14.98
2022-09-25T07:32:32.231Z,15.09
2022-09-25T07:34:59.439Z,15.20
2022-09-25T07:37:28.899Z,15.27
2022-09-25T07:39:56.139Z,15.25
2022-09-25T07:42:23.198Z,15.25
2022-09-25T07:44:50.358Z,15.20
2022-09-25T07:47:17.315Z,15.21
2022-09-25T07:49:44.140Z,15.20
2022-09-25T07:52:10.856Z,15.25
2022-09-25T07:54:39.379Z,15.23
2022-09-25T07:57:06.444Z,15.25
2022-09-25T07:59:34.272Z,15.28
2022-09-25T08:02:01.078Z,15.19
2022-09-25T08:04:27.928Z,15.28
2022-09-25T08:06:54.786Z,15.35
2022-09-25T08:09:21.811Z,15.43
2022-09-25T08:11:50.032Z,15.58
2022-09-25T08:14:17.160Z,15.71
2022-09-25T08:16:44.314Z,15.78
2022-09-25T08:19:11.808Z,15.75
2022-09-25T08:21:38.600Z,15.72
2022-09-25T08:24:05.554Z,15.68
2022-09-25T08:26:32.844Z,15.64
2022-09-25T08:29:01.235Z,15.71
2022-09-25T08:31:28.488Z,15.74
2022-09-25T08:33:55.310Z,15.80
2022-09-25T08:36:23.357Z,15.83
2022-09-25T08:38:51.646Z,15.74
2022-09-25T08:41:25.651Z,15.82
2022-09-25T08:44:04.179Z,15.80
2022-09-25T08:46:45.397Z,15.88
2022-09-25T08:49:15.906Z,15.93
2022-09-25T08:51:49.147Z,15.90
2022-09-25T08:54:23.280Z,15.77
2022-09-25T08:56:55.854Z,15.82
2022-09-25T08:59:31.821Z,15.87
2022-09-25T09:02:03.812Z,15.96
2022-09-25T09:04:38.474Z,16.03
2022-09-25T09:07:27.665Z,16.12
2022-09-25T09:10:07.207Z,16.22
2022-09-25T09:12:41.174Z,16.34
2022-09-25T09:15:27.386Z,16.35
2022-09-25T09:17:58.512Z,16.39
2022-09-25T09:20:37.508Z,16.48
2022-09-25T09:23:10.048Z,16.27
2022-09-25T09:25:52.097Z,16.29
2022-09-25T09:29:06.324Z,16.23
2022-09-25T09:31:53.372Z,16.02
2022-09-25T09:35:04.708Z,15.94
2022-09-25T09:37:49.231Z,16.00
2022-09-25T09:40:31.412Z,15.87
2022-09-25T09:43:17.106Z,15.88
2022-09-25T09:45:54.588Z,15.75
2022-09-25T09:48:35.723Z,15.86
2022-09-25T09:51:13.378Z,15.93
2022-09-25T09:53:49.508Z,16.01
2022-09-25T09:56:22.998Z,16.07
2022-09-25T09:58:56.523Z,16.10
2022-09-25T10:01:40.911Z,16.10
2022-09-25T10:04:14.472Z,16.05
2022-09-25T10:06:48.249Z,16.18
2022-09-25T10:09:16.752Z,16.26
2022-09-25T10:11:52.852Z,16.32
2022-09-25T10:14:25.703Z,16.30
2022-09-25T10:16:53.843Z,16.42
2022-09-25T10:19:28.065Z,16.45
2022-09-25T10:22:03.471Z,16.65
2022-09-25T10:24:49.709Z,16.56
2022-09-25T10:27:26.969Z,16.29
2022-09-25T10:30:17.651Z,16.20
2022-09-25T10:32:57.218Z,16.23
2022-09-25T10:35:39.748Z,16.32
2022-09-25T10:38:24.548Z,16.63
2022-09-25T10:41:01.281Z,16.71
2022-09-25T10:43:29.096Z,16.83
2022-09-25T10:46:14.658Z,16.98
2022-09-25T10:48:42.839Z,16.96
2022-09-25T10:51:12.262Z,16.92
2022-09-25T10:53:39.394Z,17.05
2022-09-25T10:56:10.207Z,17.11
2022-09-25T10:58:42.010Z,17.07
2022-09-25T11:01:12.157Z,16.79
2022-09-25T11:03:49.064Z,16.80
2022-09-25T11:06:25.862Z,16.84
2022-09-25T11:09:13.569Z,16.71
2022-09-25T11:11:41.736Z,16.81
2022-09-25T11:14:20.762Z,17.07
2022-09-25T11:16:53.179Z,17.45
2022-09-25T11:19:30.324Z,17.70
2022-09-25T11:22:24.822Z,17.80
2022-09-25T11:25:09.827Z,17.99
2022-09-25T11:27:48.406Z,18.16
2022-09-25T11:30:19.040Z,17.89
2022-09-25T11:33:00.886Z,17.98
2022-09-25T11:35:45.860Z,18.16
2022-09-25T11:38:31.832Z,18.41
2022-09-25T11:41:09.969Z,18.33
2022-09-25T11:43:59.355Z,18.55
2022-09-25T11:46:40.703Z,18.72
2022-09-25T11:49:20.787Z,18.90
2022-09-25T11:52:18.346Z,18.96
2022-09-25T11:55:22.722Z,18.95
2022-09-25T11:58:04.564Z,18.73
2022-09-25T12:00:45.675Z,18.50
2022-09-25T12:03:34.671Z,18.51
2022-09-25T12:06:55.240Z,18.41
2022-09-25T12:09:52.467Z,18.41
2022-09-25T12:12:33.242Z,18.36
2022-09-25T12:15:26.379Z,18.47
2022-09-25T12:18:06.115Z,18.47
2022-09-25T12:20:49.967Z,18.10
2022-09-25T12:23:29.927Z,18.16
2022-09-25T12:26:24.983Z,18.17
2022-09-25T12:29:19.195Z,18.24
2022-09-25T12:31:59.520Z,18.27
2022-09-25T12:34:51.216Z,18.23
2022-09-25T12:37:33.270Z,18.18
2022-09-25T12:40:10.013Z,18.06
2022-09-25T12:42:44.940Z,17.96
2022-09-25T12:45:22.229Z,17.92
2022-09-25T12:48:07.214Z,17.88
2022-09-25T12:50:48.961Z,18.08
2022-09-25T12:53:29.588Z,18.06
2022-09-25T12:56:04.804Z,18.02
2022-09-25T12:58:51.391Z,17.98
2022-09-25T13:01:29.023Z,17.79
2022-09-25T13:04:10.867Z,17.87
2022-09-25T13:06:49.969Z,18.02
2022-09-25T13:09:34.579Z,18.05
2022-09-25T13:12:10.405Z,18.19
2022-09-25T13:14:45.227Z,18.39
2022-09-25T13:17:14.674Z,18.54
2022-09-25T13:19:42.064Z,18.79
2022-09-25T13:22:14.068Z,18.91
2022-09-25T13:24:46.756Z,18.85
2022-09-25T13:27:19.980Z,18.85
2022-09-25T13:29:56.482Z,18.81
2022-09-25T13:32:28.444Z,18.70
2022-09-25T13:35:04.654Z,18.54
2022-09-25T13:37:36.613Z,18.42
2022-09-25T13:40:18.153Z,18.46
2022-09-25T13:42:46.816Z,18.48
2022-09-25T13:45:33.755Z,18.54
2022-09-25T13:48:08.735Z,18.62
2022-09-25T13:50:40.102Z,18.79
2022-09-25T13:53:27.982Z,18.72
2022-09-25T13:56:24.999Z,18.47
2022-09-25T13:59:23.993Z,18.12
2022-09-25T14:02:15.449Z,17.89
2022-09-25T14:04:46.465Z,17.81
2022-09-25T14:07:21.895Z,17.77
2022-09-25T14:09:54.982Z,17.75
2022-09-25T14:12:31.455Z,17.73
2022-09-25T14:15:05.648Z,17.70
2022-09-25T14:17:35.800Z,17.72
2022-09-25T14:20:28.044Z,17.58
2022-09-25T14:22:59.650Z,17.51
2022-09-25T14:25:33.615Z,17.39
2022-09-25T14:28:22.541Z,17.33
2022-09-25T14:31:12.933Z,17.31
2022-09-25T14:34:02.721Z,17.43
2022-09-25T14:36:49.368Z,17.28
2022-09-25T14:39:32.367Z,17.29
2022-09-25T14:42:30.848Z,17.03
2022-09-25T14:45:39.321Z,16.94
2022-09-25T14:48:14.005Z,16.81
2022-09-25T14:50:49.735Z,16.78
2022-09-25T14:53:27.293Z,16.84
2022-09-25T14:55:57.443Z,16.65
2022-09-25T14:58:30.001Z,16.64
2022-09-25T15:01:09.041Z,16.60
2022-09-25T15:03:43.396Z,16.62
2022-09-25T15:06:16.028Z,16.63
2022-09-25T15:08:46.920Z,16.70
2022-09-25T15:11:17.823Z,16.79
2022-09-25T15:13:47.716Z,16.76
2022-09-25T15:16:20.284Z,16.73
2022-09-25T15:18:53.633Z,16.74
2022-09-25T15:21:27.974Z,16.64
2022-09-25T15:24:03.180Z,16.57
2022-09-25T15:26:32.123Z,16.67
2022-09-25T15:28:59.267Z,16.59
2022-09-25T15:31:26.597Z,16.59
2022-09-25T15:34:10.540Z,16.66
2022-09-25T15:36:37.859Z,16.61
2022-09-25T15:39:15.731Z,16.61
2022-09-25T15:41:43.097Z,16.64
2022-09-25T15:44:18.860Z,16.60
2022-09-25T15:46:51.479Z,16.59
2022-09-25T15:49:26.369Z,16.48
2022-09-25T15:52:00.365Z,16.44
2022-09-25T15:54:43.450Z,16.24
2022-09-25T15:57:16.246Z,16.26
2022-09-25T15:59:48.073Z,16.19
2022-09-25T16:02:24.887Z,16.27
2022-09-25T16:04:52.672Z,16.15
2022-09-25T16:07:28.896Z,16.14
2022-09-25T16:10:01.198Z,16.09
2022-09-25T16:12:44.016Z,15.98
2022-09-25T16:15:50.000Z,15.98
2022-09-25T16:18:42.471Z,15.93
2022-09-25T16:21:25.596Z,15.82
2022-09-25T16:23:58.713Z,15.79
2022-09-25T16:26:37.156Z,15.76
2022-09-25T16:29:18.816Z,15.72
2022-09-25T16:32:16.896Z,15.64
2022-09-25T16:34:58.367Z,15.51
2022-09-25T16:37:33.263Z,15.48
2022-09-25T16:40:30.511Z,15.49
2022-09-25T16:43:01.132Z,15.41
2022-09-25T16:45:31.533Z,15.33
2022-09-25T16:47:59.999Z,15.28
2022-09-25T16:50:33.024Z,15.28
2022-09-25T16:53:00.541Z,15.26
2022-09-25T16:55:28.327Z,15.23
2022-09-25T16:57:58.223Z,15.18
2022-09-25T17:00:29.324Z,15.17
2022-09-25T17:02:57.067Z,15.13
2022-09-25T17:05:25.726Z,14.96
2022-09-25T17:07:54.982Z,14.99
2022-09-25T17:10:27.725Z,15.00
2022-09-25T17:13:01.198Z,14.98
2022-09-25T17:15:32.800Z,14.93
2022-09-25T17:18:00.522Z,14.86
2022-09-25T17:20:30.140Z,14.86
2022-09-25T17:22:57.680Z,14.88
2022-09-25T17:25:38.537Z,14.88
2022-09-25T17:28:09.928Z,14.92
2022-09-25T17:30:37.764Z,14.94
2022-09-25T17:33:04.880Z,14.93
2022-09-25T17:35:42.654Z,14.87
2022-09-25T17:38:09.541Z,14.81
2022-09-25T17:40:36.715Z,14.82
2022-09-25T17:43:03.482Z,14.89
2022-09-25T17:45:39.514Z,14.84
2022-09-25T17:48:06.754Z,14.85
2022-09-25T17:50:33.559Z,14.91
2022-09-25T17:53:00.469Z,14.92
2022-09-25T17:55:29.025Z,14.95
2022-09-25T17:57:55.734Z,15.00
2022-09-25T18:00:22.912Z,14.97
2022-09-25T18:02:51.195Z,14.93
2022-09-25T18:05:19.109Z,14.84
2022-09-25T18:07:46.161Z,14.84
2022-09-25T18:10:13.732Z,14.84
2022-09-25T18:12:41.343Z,14.82
2022-09-25T18:15:12.331Z,14.80
2022-09-25T18:17:39.710Z,14.81
2022-09-25T18:20:13.175Z,14.85
2022-09-25T18:22:40.827Z,14.76
2022-09-25T18:25:07.899Z,14.80
2022-09-25T18:27:34.862Z,14.85
2022-09-25T18:30:01.821Z,14.89
2022-09-25T18:32:30.014Z,14.91
2022-09-25T18:34:59.604Z,14.80
2022-09-25T18:37:28.777Z,14.82
2022-09-25T18:39:55.897Z,14.74
2022-09-25T18:42:25.822Z,14.69
2022-09-25T18:44:52.721Z,14.68
2022-09-25T18:47:19.706Z,14.67
2022-09-25T18:49:46.630Z,14.70
2022-09-25T18:52:13.468Z,14.70
2022-09-25T18:54:41.723Z,14.66
2022-09-25T18:57:08.903Z,14.65
2022-09-25T18:59:35.849Z,14.65
2022-09-25T19:02:03.203Z,14.66
2022-09-25T19:04:30.183Z,14.65
2022-09-25T19:06:57.003Z,14.59
2022-09-25T19:09:24.902Z,14.51
2022-09-25T19:11:53.678Z,14.45
2022-09-25T19:14:21.072Z,14.34
2022-09-25T19:16:48.171Z,14.35
2022-09-25T19:19:15.393Z,14.30
2022-09-25T19:21:42.353Z,14.26
2022-09-25T19:24:09.535Z,14.29
2022-09-25T19:26:36.878Z,14.32
2022-09-25T19:29:05.167Z,14.32
2022-09-25T19:31:31.983Z,14.36
2022-09-25T19:33:59.000Z,14.37
2022-09-25T19:36:30.225Z,14.35
2022-09-25T19:38:58.550Z,14.35
2022-09-25T19:41:28.751Z,14.27
2022-09-25T19:43:58.189Z,14.31
2022-09-25T19:46:29.349Z,14.26
2022-09-25T19:48:56.678Z,14.35
2022-09-25T19:51:27.326Z,14.38
2022-09-25T19:53:55.105Z,14.36
2022-09-25T19:56:22.164Z,14.38
2022-09-25T19:58:50.903Z,14.40
2022-09-25T20:01:23.376Z,14.41
2022-09-25T20:03:51.738Z,14.40
2022-09-25T20:06:18.938Z,14.33
2022-09-25T20:08:46.097Z,14.31
2022-09-25T20:11:16.564Z,14.26
2022-09-25T20:13:44.333Z,14.27
2022-09-25T20:16:14.505Z,14.13
2022-09-25T20:18:42.431Z,14.14
2022-09-25T20:21:11.237Z,14.11
2022-09-25T20:23:38.025Z,13.98
2022-09-25T20:26:11.129Z,14.01
2022-09-25T20:28:40.056Z,14.03
2022-09-25T20:31:10.598Z,14.04
2022-09-25T20:33:38.629Z,14.03
2022-09-25T20:36:08.097Z,14.06
2022-09-25T20:38:36.895Z,14.04
2022-09-25T20:41:07.645Z,14.07
2022-09-25T20:43:35.344Z,14.08
2022-09-25T20:46:05.549Z,14.09
2022-09-25T20:48:35.639Z,14.10
2022-09-25T20:51:04.228Z,14.11
2022-09-25T20:53:31.296Z,14.13
2022-09-25T20:56:05.463Z,14.13
2022-09-25T20:58:32.361Z,14.12
2022-09-25T21:01:00.696Z,14.12
2022-09-25T21:03:30.264Z,14.08
2022-09-25T21:06:00.392Z,14.07
2022-09-25T21:08:27.735Z,14.06
2022-09-25T21:10:54.798Z,14.05
2022-09-25T21:13:23.316Z,14.03
2022-09-25T21:15:50.014Z,14.03
2022-09-25T21:18:16.781Z,14.04
2022-09-25T21:20:43.598Z,14.01
2022-09-25T21:23:10.836Z,14.00
2022-09-25T21:25:37.955Z,13.86
2022-09-25T21:28:04.800Z,13.89
2022-09-25T21:30:33.003Z,13.92
2022-09-25T21:32:59.967Z,13.96
2022-09-25T21:35:26.792Z,14.00
2022-09-25T21:37:53.544Z,13.96
2022-09-25T21:40:20.566Z,13.95
2022-09-25T21:42:47.366Z,13.91
2022-09-25T21:45:14.329Z,13.94
2022-09-25T21:47:42.420Z,13.97
2022-09-25T21:50:09.464Z,14.00
2022-09-25T21:52:38.919Z,13.98
2022-09-25T21:55:08.039Z,13.92
2022-09-25T21:57:35.063Z,13.88
2022-09-25T22:00:02.700Z,13.88
2022-09-25T22:02:31.700Z,13.91
2022-09-25T22:04:59.843Z,13.80
2022-09-25T22:07:26.611Z,13.78
2022-09-25T22:09:53.357Z,13.81
2022-09-25T22:12:20.215Z,13.83
2022-09-25T22:14:47.058Z,13.87
2022-09-25T22:17:13.860Z,13.87
2022-09-25T22:19:40.831Z,13.89
2022-09-25T22:22:08.963Z,13.89
2022-09-25T22:24:35.950Z,13.89
2022-09-25T22:27:02.774Z,13.90
2022-09-25T22:29:29.794Z,13.90
2022-09-25T22:31:56.769Z,13.91
2022-09-25T22:34:26.351Z,13.88
2022-09-25T22:36:59.116Z,13.86
2022-09-25T22:39:29.604Z,13.84
2022-09-25T22:41:57.301Z,13.85
2022-09-25T22:44:24.783Z,13.87
2022-09-25T22:46:51.742Z,13.81
2022-09-25T22:49:18.470Z,13.77
2022-09-25T22:51:45.422Z,13.78
2022-09-25T22:54:13.522Z,13.67
2022-09-25T22:56:43.209Z,13.44
2022-09-25T22:59:14.114Z,13.00
2022-09-25T23:01:46.127Z,13.06
2022-09-25T23:04:16.377Z,13.11
2022-09-25T23:06:43.854Z,13.07
2022-09-25T23:09:13.929Z,12.83
2022-09-25T23:11:43.343Z,12.94
2022-09-25T23:14:14.520Z,13.07
2022-09-25T23:16:41.399Z,13.16
2022-09-25T23:19:08.589Z,13.25
2022-09-25T23:21:35.971Z,13.30
2022-09-25T23:24:07.514Z,13.30
2022-09-25T23:26:34.812Z,13.13
2022-09-25T23:29:03.132Z,12.95
2022-09-25T23:31:32.319Z,12.63
2022-09-25T23:34:00.038Z,12.56
2022-09-25T23:36:28.736Z,12.39
2022-09-25T23:38:59.043Z,12.35
2022-09-25T23:41:29.345Z,12.28
2022-09-25T23:43:57.528Z,12.10
2022-09-25T23:46:29.954Z,12.15
2022-09-25T23:48:58.095Z,12.11
2022-09-25T23:51:26.004Z,12.08
2022-09-25T23:53:55.670Z,12.07
2022-09-25T23:56:26.889Z,12.16
2022-09-25T23:58:56.850Z,12.29
